Time;durP1;ratioP1;P1;durP2;ratioP2;P2;SDS_P1;SDS_P2;PMS_P1;PMS_P2;Temp;Humidity;BMP_temperature;BMP_pressure;BME280_temperature;BME280_humidity;BME280_pressure;Samples;Min_cycle;Max_cycle;Signal;HPM_P1;HPM_P2
2023/12/02 00:00:47;;;;;;;20.85;9.00;;;-5.20;99.90;;;;;;4952603;29;20192;-84
2023/12/02 00:03:14;;;;;;;22.25;8.98;;;-5.20;99.90;;;;;;4936739;29;20189;-82
2023/12/02 00:05:42;;;;;;;21.73;7.93;;;-5.20;99.90;;;;;;4936476;29;20193;-84
2023/12/02 00:08:10;;;;;;;19.23;8.43;;;-5.30;99.90;;;;;;4936293;29;20204;-84
2023/12/02 00:10:37;;;;;;;23.15;8.63;;;-5.30;99.90;;;;;;4953792;29;20189;-83
2023/12/02 00:13:04;;;;;;;19.02;8.65;;;-5.60;99.90;;;;;;4952173;29;20193;-83
2023/12/02 00:15:32;;;;;;;25.67;10.75;;;-5.70;99.90;;;;;;4936185;28;20192;-84
2023/12/02 00:17:59;;;;;;;21.27;9.02;;;-5.70;99.90;;;;;;4953074;29;20271;-84
2023/12/02 00:20:27;;;;;;;25.13;10.00;;;-5.80;99.90;;;;;;4936338;29;20683;-84
2023/12/02 00:22:54;;;;;;;25.45;9.90;;;-5.60;99.90;;;;;;4953536;29;20710;-85
2023/12/02 00:25:22;;;;;;;26.38;10.45;;;-5.50;99.90;;;;;;4953310;29;20611;-83
2023/12/02 00:27:49;;;;;;;24.10;9.88;;;-5.60;99.90;;;;;;4951880;29;20770;-84
2023/12/02 00:30:17;;;;;;;27.05;10.15;;;-5.50;99.90;;;;;;4946203;29;20583;-84
2023/12/02 00:32:44;;;;;;;26.27;10.50;;;-5.50;99.90;;;;;;4953241;29;20188;-85
2023/12/02 00:35:12;;;;;;;22.77;8.93;;;-5.50;99.90;;;;;;4953750;29;20189;-84
2023/12/02 00:37:39;;;;;;;24.90;9.48;;;-5.50;99.90;;;;;;4952334;29;20196;-85
2023/12/02 00:40:08;;;;;;;23.17;9.50;;;-5.40;99.90;;;;;;4932737;29;20197;-84
2023/12/02 00:42:35;;;;;;;22.73;8.82;;;-5.30;99.90;;;;;;4932703;29;20667;-85
2023/12/02 00:45:03;;;;;;;25.63;8.98;;;-5.50;99.90;;;;;;4933970;29;20583;-84
2023/12/02 00:47:30;;;;;;;26.77;9.15;;;-5.50;99.90;;;;;;4932554;29;20205;-84
2023/12/02 00:49:59;;;;;;;25.30;9.43;;;-5.60;99.90;;;;;;4933518;29;20186;-84
2023/12/02 00:52:27;;;;;;;21.95;9.43;;;-5.50;99.90;;;;;;4948984;29;20182;-83
2023/12/02 00:54:54;;;;;;;24.52;9.48;;;-5.40;99.90;;;;;;4933044;29;20244;-84
2023/12/02 00:57:22;;;;;;;20.80;8.98;;;-5.50;99.90;;;;;;4948415;29;20194;-83
2023/12/02 00:59:49;;;;;;;22.35;8.70;;;-5.70;99.90;;;;;;4932356;29;20643;-85
2023/12/02 01:02:17;;;;;;;21.90;9.25;;;-5.70;99.90;;;;;;4932215;29;20201;-84
2023/12/02 01:04:44;;;;;;;25.45;9.13;;;-5.60;99.90;;;;;;4947475;29;20648;-84
2023/12/02 01:07:11;;;;;;;19.05;8.45;;;-5.60;99.90;;;;;;4932758;29;20212;-84
2023/12/02 01:09:39;;;;;;;25.58;8.95;;;-5.80;99.90;;;;;;4931090;29;20660;-84
2023/12/02 01:12:07;;;;;;;22.83;9.40;;;-5.80;99.90;;;;;;4932402;29;20265;-84
2023/12/02 01:14:34;;;;;;;22.08;8.73;;;-5.70;99.90;;;;;;4931925;29;20204;-84
2023/12/02 01:17:02;;;;;;;22.67;9.65;;;-5.60;99.90;;;;;;4948236;29;20201;-84
2023/12/02 01:19:29;;;;;;;21.17;8.82;;;-5.60;99.90;;;;;;4933101;29;20195;-85
2023/12/02 01:22:01;;;;;;;22.95;8.82;;;-5.60;99.90;;;;;;4933157;29;20177;-85
2023/12/02 01:24:28;;;;;;;22.23;7.85;;;-5.60;99.90;;;;;;4932215;29;20269;-85
2023/12/02 01:26:56;;;;;;;25.33;9.30;;;-5.60;99.90;;;;;;4931530;29;20719;-84
2023/12/02 01:29:23;;;;;;;25.08;10.45;;;-5.70;99.90;;;;;;4931338;29;20196;-85
2023/12/02 01:31:51;;;;;;;27.05;10.40;;;-5.60;99.90;;;;;;4932982;29;20182;-83
2023/12/02 01:34:18;;;;;;;21.73;8.45;;;-5.50;99.90;;;;;;4947925;29;20229;-84
2023/12/02 01:36:46;;;;;;;19.98;8.75;;;-5.50;99.90;;;;;;4933039;29;20190;-84
2023/12/02 01:39:14;;;;;;;20.77;7.55;;;-5.60;99.90;;;;;;4948528;29;20193;-84
2023/12/02 01:41:41;;;;;;;20.27;8.13;;;-5.60;99.90;;;;;;4931814;29;20190;-84
2023/12/02 01:44:12;;;;;;;20.10;8.80;;;-5.60;99.90;;;;;;4932927;29;20186;-84
2023/12/02 01:46:39;;;;;;;19.45;8.98;;;-5.50;99.90;;;;;;4933474;29;20530;-85
2023/12/02 01:49:08;;;;;;;22.63;7.97;;;-5.40;99.90;;;;;;4933285;29;20209;-85
2023/12/02 01:51:36;;;;;;;21.33;8.43;;;-5.50;99.90;;;;;;4931492;29;20229;-84
2023/12/02 01:54:04;;;;;;;19.20;8.35;;;-5.60;99.90;;;;;;4932938;29;20194;-85
2023/12/02 01:56:31;;;;;;;17.13;8.15;;;-5.60;99.90;;;;;;4931621;29;20567;-86
2023/12/02 01:59:00;;;;;;;22.60;9.18;;;-5.90;99.90;;;;;;4948029;29;20197;-84
2023/12/02 02:01:28;;;;;;;16.48;7.05;;;-5.70;99.90;;;;;;4931473;29;20197;-84
2023/12/02 02:03:56;;;;;;;19.08;8.35;;;-5.60;99.90;;;;;;4947388;29;20726;-85
2023/12/02 02:06:23;;;;;;;19.98;7.55;;;-5.70;99.90;;;;;;4931357;29;20296;-84
2023/12/02 02:08:51;;;;;;;17.00;7.05;;;-5.60;99.90;;;;;;4931190;29;20189;-83
2023/12/02 02:11:18;;;;;;;19.30;8.38;;;-5.60;99.90;;;;;;4931328;29;20205;-85
2023/12/02 02:13:46;;;;;;;21.80;8.32;;;-5.70;99.90;;;;;;4947178;29;20624;-85
2023/12/02 02:16:13;;;;;;;20.70;8.27;;;-5.70;99.90;;;;;;4947501;29;20201;-84
2023/12/02 02:18:40;;;;;;;16.67;7.03;;;-5.70;99.90;;;;;;4947158;29;20244;-83
2023/12/02 02:21:08;;;;;;;19.52;8.32;;;-5.60;99.90;;;;;;4931041;29;20196;-84
2023/12/02 02:23:35;;;;;;;16.52;7.93;;;-5.50;99.90;;;;;;4932609;29;20208;-84
2023/12/02 02:26:03;;;;;;;15.48;7.22;;;-5.50;99.90;;;;;;4930905;29;20656;-84
2023/12/02 02:28:31;;;;;;;15.98;7.28;;;-5.50;99.90;;;;;;4936061;29;20219;-85
2023/12/02 02:30:58;;;;;;;17.15;7.93;;;-5.60;99.90;;;;;;4918404;29;20196;-85
2023/12/02 02:33:26;;;;;;;16.50;6.95;;;-5.70;99.90;;;;;;4950078;29;20192;-84
2023/12/02 02:35:54;;;;;;;17.85;7.72;;;-5.70;99.90;;;;;;4950556;29;20614;-85
2023/12/02 02:38:21;;;;;;;17.40;7.40;;;-5.80;99.90;;;;;;4934594;29;20736;-85
2023/12/02 02:40:48;;;;;;;16.75;7.75;;;-5.80;99.90;;;;;;4955209;28;20684;-84
2023/12/02 02:43:16;;;;;;;16.95;8.10;;;-5.80;99.90;;;;;;4938098;29;20192;-83
2023/12/02 02:45:43;;;;;;;19.98;7.65;;;-5.90;99.90;;;;;;4955199;29;20197;-84
2023/12/02 02:48:11;;;;;;;16.88;7.03;;;-5.90;99.90;;;;;;4938049;29;20216;-84
2023/12/02 02:50:39;;;;;;;16.05;7.32;;;-5.90;99.90;;;;;;4921947;29;20710;-84
2023/12/02 02:53:06;;;;;;;18.48;7.63;;;-5.80;99.90;;;;;;4937905;29;20208;-84
2023/12/02 02:55:34;;;;;;;14.40;7.05;;;-5.70;99.90;;;;;;4954387;29;20255;-85
2023/12/02 02:58:01;;;;;;;18.42;6.93;;;-5.60;99.90;;;;;;4955226;29;20247;-85
2023/12/02 03:00:29;;;;;;;19.17;7.53;;;-5.60;99.90;;;;;;4937954;29;20200;-84
2023/12/02 03:02:56;;;;;;;19.00;7.63;;;-5.60;99.90;;;;;;4953869;29;20185;-84
2023/12/02 03:05:23;;;;;;;15.25;7.05;;;-5.70;99.90;;;;;;4937846;29;20193;-84
2023/12/02 03:07:54;;;;;;;17.38;7.55;;;-5.70;99.90;;;;;;4922089;29;20666;-84
2023/12/02 03:10:22;;;;;;;16.05;6.78;;;-5.70;99.90;;;;;;4953732;29;20189;-85
2023/12/02 03:12:50;;;;;;;17.70;7.20;;;-5.70;99.90;;;;;;4937465;29;20216;-84
2023/12/02 03:15:18;;;;;;;19.38;7.07;;;-5.60;99.90;;;;;;4938047;29;20664;-85
2023/12/02 03:17:45;;;;;;;16.80;6.35;;;-5.70;99.90;;;;;;4955370;29;20201;-84
2023/12/02 03:20:13;;;;;;;18.98;7.13;;;-5.60;99.90;;;;;;4954291;29;20193;-84
2023/12/02 03:22:41;;;;;;;19.58;7.78;;;-5.80;99.90;;;;;;4953120;29;20718;-84
2023/12/02 03:25:08;;;;;;;20.02;7.97;;;-5.90;99.90;;;;;;4937469;29;20212;-85
2023/12/02 03:27:36;;;;;;;15.88;6.93;;;-5.90;99.90;;;;;;4954550;29;20212;-84
2023/12/02 03:30:04;;;;;;;22.33;8.35;;;-5.70;99.90;;;;;;4953315;29;20212;-84
2023/12/02 03:32:32;;;;;;;18.15;7.63;;;-5.70;99.90;;;;;;4954512;29;20260;-86
2023/12/02 03:34:59;;;;;;;14.50;6.88;;;-5.60;99.90;;;;;;4953075;29;20216;-84
2023/12/02 03:37:27;;;;;;;15.90;7.20;;;-5.50;99.90;;;;;;4955200;29;20280;-84
2023/12/02 03:39:54;;;;;;;19.02;9.13;;;-5.50;99.90;;;;;;4954867;29;20256;-85
2023/12/02 03:42:22;;;;;;;16.42;6.78;;;-5.50;99.90;;;;;;4952711;29;20632;-84
2023/12/02 03:44:49;;;;;;;17.08;7.82;;;-5.50;99.90;;;;;;4953141;29;20727;-85
2023/12/02 03:47:17;;;;;;;16.08;7.25;;;-5.80;99.90;;;;;;4936881;29;20673;-84
2023/12/02 03:49:44;;;;;;;17.05;7.20;;;-5.80;99.90;;;;;;4968486;28;20193;-84
2023/12/02 03:52:12;;;;;;;20.65;7.07;;;-5.70;99.90;;;;;;4952147;28;20224;-84
2023/12/02 03:54:39;;;;;;;13.95;6.55;;;-5.70;99.90;;;;;;4952725;29;20279;-85
2023/12/02 03:57:07;;;;;;;18.40;7.20;;;-5.80;99.90;;;;;;4936994;29;20185;-83
2023/12/02 03:59:35;;;;;;;17.23;7.35;;;-5.70;99.90;;;;;;4953875;29;20203;-85
2023/12/02 04:02:02;;;;;;;19.48;7.68;;;-5.80;99.90;;;;;;4952810;29;20271;-84
2023/12/02 04:04:30;;;;;;;15.93;7.20;;;-5.80;99.90;;;;;;4952519;29;20600;-84
2023/12/02 04:06:57;;;;;;;17.00;6.70;;;-5.70;99.90;;;;;;4952747;29;20666;-85
2023/12/02 04:09:25;;;;;;;17.65;7.45;;;-5.80;99.90;;;;;;4953764;29;20272;-84
2023/12/02 04:11:53;;;;;;;15.25;7.30;;;-5.90;99.90;;;;;;4936278;29;20267;-84
2023/12/02 04:14:20;;;;;;;17.27;7.25;;;-6.00;99.90;;;;;;4952413;29;20185;-84
2023/12/02 04:16:47;;;;;;;20.08;8.20;;;-6.10;99.90;;;;;;4953531;29;20188;-83
2023/12/02 04:19:15;;;;;;;20.80;8.60;;;-6.10;99.90;;;;;;4953769;29;20199;-85
2023/12/02 04:21:44;;;;;;;18.30;7.65;;;-6.10;99.90;;;;;;4937314;29;20192;-83
2023/12/02 04:24:12;;;;;;;17.73;7.70;;;-6.00;99.90;;;;;;4953599;29;20189;-84
2023/12/02 04:26:41;;;;;;;17.35;7.05;;;-6.00;99.90;;;;;;4936249;29;20200;-84
2023/12/02 04:29:08;;;;;;;18.50;8.38;;;-6.00;99.90;;;;;;4952356;29;20209;-84
2023/12/02 04:31:36;;;;;;;20.85;8.20;;;-5.80;99.90;;;;;;4952604;29;20193;-84
2023/12/02 04:34:04;;;;;;;19.58;7.78;;;-5.70;99.90;;;;;;4936778;29;20677;-84
2023/12/02 04:36:31;;;;;;;16.00;7.20;;;-5.70;99.90;;;;;;4953497;29;20284;-85
2023/12/02 04:38:59;;;;;;;18.05;7.47;;;-5.70;99.90;;;;;;4952724;29;20263;-85
2023/12/02 04:41:26;;;;;;;18.73;7.00;;;-5.60;99.90;;;;;;4935958;29;20197;-84
2023/12/02 04:43:54;;;;;;;14.60;6.95;;;-5.60;99.90;;;;;;4951984;29;20203;-84
2023/12/02 04:46:21;;;;;;;19.15;7.20;;;-5.60;99.90;;;;;;4935650;29;20255;-84
2023/12/02 04:48:49;;;;;;;16.95;7.50;;;-5.70;99.90;;;;;;4935585;29;20559;-84
2023/12/02 04:51:16;;;;;;;18.13;7.32;;;-5.60;99.90;;;;;;4935322;29;20232;-84
2023/12/02 04:53:43;;;;;;;17.77;7.68;;;-5.80;99.90;;;;;;4940798;29;20192;-85
2023/12/02 04:56:11;;;;;;;13.38;6.80;;;-5.90;99.90;;;;;;4952234;29;20176;-84
2023/12/02 04:58:39;;;;;;;18.90;7.40;;;-5.90;99.90;;;;;;4952673;29;20219;-84
2023/12/02 05:01:06;;;;;;;15.48;7.45;;;-5.90;99.90;;;;;;4951259;29;20573;-84
2023/12/02 05:03:34;;;;;;;15.38;6.60;;;-6.00;99.90;;;;;;4951640;28;20283;-84
2023/12/02 05:06:01;;;;;;;19.85;8.10;;;-6.10;99.90;;;;;;4935053;29;20204;-84
2023/12/02 05:08:29;;;;;;;18.42;7.70;;;-6.10;99.90;;;;;;4952689;29;20214;-84
2023/12/02 05:10:56;;;;;;;20.42;7.80;;;-6.10;99.90;;;;;;4950960;29;20193;-84
2023/12/02 05:13:24;;;;;;;22.30;8.10;;;-6.10;99.90;;;;;;4952244;29;20729;-85
2023/12/02 05:15:51;;;;;;;20.33;8.32;;;-6.10;99.90;;;;;;4950986;29;20193;-85
2023/12/02 05:18:19;;;;;;;23.17;8.90;;;-6.20;99.90;;;;;;4934854;29;20667;-83
2023/12/02 05:20:46;;;;;;;17.70;7.90;;;-6.20;99.90;;;;;;4950843;29;20220;-84
2023/12/02 05:23:14;;;;;;;18.65;7.97;;;-6.20;99.90;;;;;;4934741;29;20193;-84
2023/12/02 05:25:41;;;;;;;21.17;8.57;;;-6.20;99.90;;;;;;4952187;29;20185;-84
2023/12/02 05:28:09;;;;;;;22.50;8.68;;;-6.20;99.90;;;;;;4952138;29;20236;-83
2023/12/02 05:30:36;;;;;;;20.02;8.23;;;-6.20;99.90;;;;;;4935017;29;20723;-83
2023/12/02 05:33:03;;;;;;;21.67;9.13;;;-6.10;99.90;;;;;;4950844;29;20188;-84
2023/12/02 05:35:31;;;;;;;19.10;8.05;;;-5.90;99.90;;;;;;4952071;29;20660;-85
2023/12/02 05:38:00;;;;;;;17.55;7.18;;;-5.80;99.90;;;;;;4950553;29;20192;-83
2023/12/02 05:40:27;;;;;;;20.48;8.25;;;-5.80;99.90;;;;;;4952013;29;20199;-84
2023/12/02 05:42:54;;;;;;;18.88;8.07;;;-5.80;99.90;;;;;;4950632;29;20264;-84
2023/12/02 05:45:22;;;;;;;16.15;6.80;;;-5.90;99.90;;;;;;4949548;29;20192;-84
2023/12/02 05:47:51;;;;;;;17.60;6.95;;;-5.80;99.90;;;;;;4934634;29;20216;-84
2023/12/02 05:50:18;;;;;;;19.05;7.82;;;-5.90;99.90;;;;;;4952023;29;20252;-84
2023/12/02 05:52:46;;;;;;;18.20;7.13;;;-6.10;99.90;;;;;;4951792;29;20170;-84
2023/12/02 05:55:13;;;;;;;16.02;7.13;;;-6.20;99.90;;;;;;4951641;29;20204;-84
2023/12/02 05:57:46;;;;;;;20.58;8.77;;;-6.30;99.90;;;;;;4934305;29;20195;-84
2023/12/02 06:00:17;;;;;;;15.98;7.40;;;-6.10;99.90;;;;;;4934251;29;20185;-83
2023/12/02 06:02:44;;;;;;;22.35;8.32;;;-6.00;99.90;;;;;;4950445;29;20185;-84
2023/12/02 06:05:12;;;;;;;17.13;7.15;;;-6.00;99.90;;;;;;4934014;29;20193;-84
2023/12/02 06:07:40;;;;;;;21.50;8.25;;;-6.10;99.90;;;;;;4934182;29;20719;-84
2023/12/02 06:10:08;;;;;;;22.17;8.98;;;-6.20;99.90;;;;;;4951645;29;20189;-84
2023/12/02 06:12:35;;;;;;;16.00;7.07;;;-6.10;99.90;;;;;;4933905;29;20204;-84
2023/12/02 06:15:03;;;;;;;18.88;7.40;;;-6.30;99.90;;;;;;4949530;28;20669;-84
2023/12/02 06:17:31;;;;;;;19.10;7.68;;;-6.20;99.90;;;;;;4951499;29;20569;-84
2023/12/02 06:19:59;;;;;;;16.63;6.63;;;-6.10;99.90;;;;;;4951210;29;20185;-83
2023/12/02 06:22:26;;;;;;;19.33;6.82;;;-6.10;99.90;;;;;;4951274;29;20648;-85
2023/12/02 06:24:53;;;;;;;16.35;7.03;;;-6.20;99.90;;;;;;4949581;29;20193;-84
2023/12/02 06:27:21;;;;;;;15.43;7.15;;;-6.10;99.90;;;;;;4926235;29;20224;-83
2023/12/02 06:29:48;;;;;;;16.40;6.47;;;-6.00;99.90;;;;;;4932260;29;20676;-85
2023/12/02 06:32:16;;;;;;;16.10;6.18;;;-5.90;99.90;;;;;;4932368;29;20193;-85
2023/12/02 06:34:43;;;;;;;18.42;7.25;;;-5.90;99.90;;;;;;4930931;29;20201;-85
2023/12/02 06:37:11;;;;;;;15.10;5.82;;;-5.90;99.90;;;;;;4933084;29;20178;-85
2023/12/02 06:39:38;;;;;;;18.08;6.50;;;-5.90;99.90;;;;;;4949714;29;20193;-84
2023/12/02 06:42:06;;;;;;;14.85;6.40;;;-5.90;99.90;;;;;;4933816;29;20204;-83
2023/12/02 06:44:33;;;;;;;17.10;7.95;;;-6.00;99.90;;;;;;4933762;29;20208;-84
2023/12/02 06:47:01;;;;;;;14.63;6.78;;;-6.10;99.90;;;;;;4933518;29;20571;-84
2023/12/02 06:49:28;;;;;;;18.83;6.45;;;-6.20;99.90;;;;;;4949723;29;20690;-84
2023/12/02 06:51:56;;;;;;;17.27;6.85;;;-6.10;99.90;;;;;;4949611;29;20236;-85
2023/12/02 06:54:23;;;;;;;11.85;6.38;;;-6.00;99.90;;;;;;4950873;29;20185;-85
2023/12/02 06:56:51;;;;;;;18.25;7.13;;;-6.00;99.90;;;;;;4950815;29;20185;-84
2023/12/02 06:59:18;;;;;;;13.85;6.65;;;-6.10;99.90;;;;;;4949578;29;20193;-83
2023/12/02 07:01:46;;;;;;;16.40;6.25;;;-6.10;99.90;;;;;;4951024;29;20204;-85
2023/12/02 07:04:13;;;;;;;14.57;5.53;;;-6.00;99.90;;;;;;4949642;29;20184;-85
2023/12/02 07:06:41;;;;;;;14.38;6.10;;;-6.00;99.90;;;;;;4951022;29;20240;-83
2023/12/02 07:09:08;;;;;;;17.00;7.15;;;-5.90;99.90;;;;;;4933538;29;20699;-84
2023/12/02 07:11:36;;;;;;;15.45;6.55;;;-5.90;99.90;;;;;;4946992;29;20220;-84
2023/12/02 07:14:04;;;;;;;18.00;7.25;;;-5.90;99.90;;;;;;4949450;29;20299;-85
2023/12/02 07:16:32;;;;;;;17.98;7.90;;;-5.90;99.90;;;;;;4949484;29;20613;-84
2023/12/02 07:18:59;;;;;;;15.38;5.97;;;-6.00;99.90;;;;;;4949383;29;20193;-83
2023/12/02 07:21:27;;;;;;;12.88;5.53;;;-5.90;99.90;;;;;;4951102;29;20267;-84
2023/12/02 07:23:54;;;;;;;13.50;5.93;;;-5.90;99.90;;;;;;4950911;29;20724;-84
2023/12/02 07:26:22;;;;;;;14.75;6.13;;;-5.80;99.90;;;;;;4951247;28;20216;-85
2023/12/02 07:28:49;;;;;;;14.10;5.70;;;-5.80;99.90;;;;;;4954443;29;20734;-83
2023/12/02 07:31:17;;;;;;;13.55;5.60;;;-5.80;99.90;;;;;;4937158;29;20193;-84
2023/12/02 07:33:45;;;;;;;10.70;5.50;;;-5.80;99.90;;;;;;4952835;29;20267;-83
2023/12/02 07:36:13;;;;;;;10.50;4.55;;;-5.70;99.90;;;;;;4954038;29;20559;-83
2023/12/02 07:38:40;;;;;;;11.80;4.75;;;-5.80;99.90;;;;;;4954059;29;20189;-83
2023/12/02 07:41:09;;;;;;;13.45;6.18;;;-5.80;99.90;;;;;;4936846;29;20667;-84
2023/12/02 07:43:36;;;;;;;13.95;5.65;;;-5.80;99.90;;;;;;4952692;29;20707;-83
2023/12/02 07:46:05;;;;;;;13.65;5.78;;;-5.80;99.90;;;;;;4953929;29;20197;-84
2023/12/02 07:48:32;;;;;;;15.90;6.75;;;-5.80;99.90;;;;;;4953738;29;20204;-84
2023/12/02 07:51:03;;;;;;;15.32;7.07;;;-5.80;99.90;;;;;;4949545;28;20991;-84
2023/12/02 07:53:31;;;;;;;17.00;7.63;;;-5.70;99.90;;;;;;4935632;29;20166;-85
2023/12/02 07:55:58;;;;;;;14.98;6.32;;;-5.70;99.90;;;;;;4934636;29;20237;-83
2023/12/02 07:58:26;;;;;;;14.15;6.20;;;-5.70;99.90;;;;;;4949120;29;20288;-84
2023/12/02 08:00:54;;;;;;;13.45;6.47;;;-5.70;99.90;;;;;;4949099;29;20193;-83
2023/12/02 08:03:21;;;;;;;14.35;6.05;;;-5.70;99.90;;;;;;4949023;29;20227;-85
2023/12/02 08:05:51;;;;;;;14.82;5.95;;;-5.80;99.90;;;;;;4949030;29;20256;-84
2023/12/02 08:08:18;;;;;;;12.90;6.20;;;-5.80;99.90;;;;;;4932900;29;20213;-83
2023/12/02 08:10:47;;;;;;;15.65;6.32;;;-5.80;99.90;;;;;;4949041;29;20309;-84
2023/12/02 08:13:14;;;;;;;13.68;7.30;;;-5.80;99.90;;;;;;4933377;29;20201;-83
2023/12/02 08:15:42;;;;;;;12.65;6.15;;;-5.80;99.90;;;;;;4933051;29;20193;-84
2023/12/02 08:18:09;;;;;;;15.98;6.60;;;-5.70;99.90;;;;;;4932927;29;20204;-84
2023/12/02 08:20:37;;;;;;;17.55;6.88;;;-5.70;99.90;;;;;;4948634;29;20286;-85
2023/12/02 08:23:04;;;;;;;22.17;9.30;;;-5.70;99.90;;;;;;4932655;29;20217;-83
2023/12/02 08:25:32;;;;;;;17.98;8.15;;;-5.60;99.90;;;;;;4932805;29;20186;-83
2023/12/02 08:27:59;;;;;;;16.05;6.40;;;-5.50;99.90;;;;;;4934109;29;20608;-85
2023/12/02 08:30:27;;;;;;;13.20;5.82;;;-5.60;99.90;;;;;;4933042;29;20601;-83
2023/12/02 08:32:54;;;;;;;13.88;6.45;;;-5.60;99.90;;;;;;4924230;29;20288;-83
2023/12/02 08:35:22;;;;;;;14.27;6.18;;;-5.70;99.90;;;;;;4948425;29;20652;-83
2023/12/02 08:37:49;;;;;;;19.38;7.03;;;-5.70;99.90;;;;;;4947302;28;20256;-84
2023/12/02 08:40:17;;;;;;;16.00;6.68;;;-5.60;99.90;;;;;;4932748;29;20683;-84
2023/12/02 08:42:44;;;;;;;15.20;7.10;;;-5.60;99.90;;;;;;4933376;29;20199;-84
2023/12/02 08:45:12;;;;;;;16.48;7.25;;;-5.60;99.90;;;;;;4932948;29;20543;-85
2023/12/02 08:47:40;;;;;;;17.30;6.97;;;-5.70;99.90;;;;;;4932780;29;20671;-83
2023/12/02 08:50:08;;;;;;;17.23;7.38;;;-5.60;99.90;;;;;;4935367;29;20240;-84
2023/12/02 08:52:35;;;;;;;16.50;7.57;;;-5.50;99.90;;;;;;4951556;29;20188;-83
2023/12/02 08:55:03;;;;;;;17.40;7.13;;;-5.50;99.90;;;;;;4935658;29;20189;-84
2023/12/02 08:57:32;;;;;;;18.95;8.02;;;-5.50;99.90;;;;;;4919643;29;20283;-84
2023/12/02 08:59:59;;;;;;;18.83;7.00;;;-5.40;99.90;;;;;;4951118;29;20598;-83
2023/12/02 09:02:27;;;;;;;18.13;8.38;;;-5.40;99.90;;;;;;4952246;29;20188;-83
2023/12/02 09:04:54;;;;;;;16.75;6.72;;;-5.30;99.90;;;;;;4927259;29;20256;-84
2023/12/02 09:07:22;;;;;;;18.20;7.97;;;-5.30;99.90;;;;;;4933362;29;20743;-84
2023/12/02 09:09:49;;;;;;;18.92;7.88;;;-5.30;99.90;;;;;;4931506;29;20209;-83
2023/12/02 09:12:17;;;;;;;12.70;6.03;;;-5.30;99.90;;;;;;4932496;29;20186;-83
2023/12/02 09:14:44;;;;;;;15.63;6.15;;;-5.30;99.90;;;;;;4931895;29;20190;-83
2023/12/02 09:17:47;;;;;;;17.33;6.47;;;-5.30;99.90;;;;;;4931378;29;20192;-83
2023/12/02 09:20:39;;;;;;;13.32;5.78;;;-5.40;99.90;;;;;;4915443;29;20228;-83
2023/12/02 09:23:07;;;;;;;24.10;12.93;;;-5.40;99.90;;;;;;4930927;29;20200;-84
2023/12/02 09:25:39;;;;;;;16.17;8.20;;;-5.30;99.90;;;;;;4915478;29;20845;-84
2023/12/02 09:28:06;;;;;;;14.25;6.20;;;-5.30;99.90;;;;;;4932917;29;20184;-83
2023/12/02 09:30:42;;;;;;;15.05;6.47;;;-5.30;99.90;;;;;;4931134;29;20292;-82
2023/12/02 09:33:10;;;;;;;15.57;6.43;;;-5.30;99.90;;;;;;4935391;29;20703;-83
2023/12/02 09:35:37;;;;;;;17.23;7.32;;;-5.30;99.90;;;;;;4947758;29;20196;-83
2023/12/02 09:38:05;;;;;;;15.35;7.13;;;-5.40;99.90;;;;;;4951488;29;20180;-84
2023/12/02 09:41:12;;;;;;;16.52;7.53;;;-5.40;99.90;;;;;;4950547;29;20651;-83
2023/12/02 09:43:59;;;;;;;18.20;8.00;;;-5.40;99.90;;;;;;4945494;29;20214;-83
2023/12/02 09:46:36;;;;;;;20.30;10.00;;;-5.30;99.90;;;;;;4930806;29;20197;-82
2023/12/02 09:49:17;;;;;;;20.23;8.15;;;-5.30;99.90;;;;;;4947118;28;20284;-83
2023/12/02 09:51:48;;;;;;;17.83;7.70;;;-5.20;99.90;;;;;;4949716;29;20631;-82
2023/12/02 09:54:30;;;;;;;17.40;6.97;;;-5.30;99.90;;;;;;4941502;29;20291;-82
2023/12/02 09:57:27;;;;;;;17.67;8.40;;;-5.30;99.90;;;;;;4949132;28;20571;-83
2023/12/02 10:00:15;;;;;;;17.50;7.95;;;-5.40;99.90;;;;;;4950872;29;20296;-83
2023/12/02 10:02:54;;;;;;;16.52;6.82;;;-5.40;99.90;;;;;;4950729;29;20193;-82
2023/12/02 10:05:22;;;;;;;17.35;8.02;;;-5.50;99.90;;;;;;4950835;29;20196;-82
2023/12/02 10:08:27;;;;;;;19.10;8.20;;;-5.40;99.90;;;;;;4934247;29;20192;-84
2023/12/02 10:11:04;;;;;;;20.75;8.43;;;-5.40;99.90;;;;;;4950241;29;20216;-83
2023/12/02 10:13:38;;;;;;;21.52;9.27;;;-5.30;99.90;;;;;;4951639;29;20184;-83
2023/12/02 10:16:12;;;;;;;21.00;9.35;;;-5.30;99.90;;;;;;4930636;29;20667;-83
2023/12/02 10:18:51;;;;;;;32.35;15.75;;;-5.20;99.90;;;;;;4933744;29;20270;-82
2023/12/02 10:21:20;;;;;;;17.00;7.93;;;-5.10;99.90;;;;;;4950960;29;20292;-82
2023/12/02 10:23:58;;;;;;;22.30;9.18;;;-5.20;99.90;;;;;;4950694;29;20197;-82
2023/12/02 10:26:28;;;;;;;19.00;7.75;;;-5.20;99.90;;;;;;4944642;29;20203;-83
2023/12/02 10:29:08;;;;;;;20.27;8.75;;;-5.20;99.90;;;;;;4946065;29;20256;-82
2023/12/02 10:31:47;;;;;;;19.00;7.28;;;-5.30;99.90;;;;;;4948287;29;20201;-82
2023/12/02 10:34:42;;;;;;;20.63;7.75;;;-5.30;99.90;;;;;;4947609;29;20202;-81
2023/12/02 10:37:13;;;;;;;19.08;7.03;;;-5.30;99.90;;;;;;4949619;29;20738;-84
2023/12/02 10:39:48;;;;;;;17.00;7.80;;;-5.20;99.90;;;;;;4950325;29;20215;-81
2023/12/02 10:42:36;;;;;;;17.38;7.93;;;-5.30;99.90;;;;;;4950351;29;20196;-82
2023/12/02 10:45:05;;;;;;;17.88;8.27;;;-5.30;99.90;;;;;;4922485;29;20232;-83
2023/12/02 10:47:33;;;;;;;19.48;8.18;;;-5.30;99.90;;;;;;4949167;29;20698;-81
2023/12/02 10:50:02;;;;;;;20.10;7.47;;;-5.20;99.90;;;;;;4949936;29;20219;-81
2023/12/02 10:52:32;;;;;;;19.15;8.88;;;-5.20;99.90;;;;;;4947887;29;20187;-82
2023/12/02 10:55:03;;;;;;;18.45;7.55;;;-5.20;99.90;;;;;;4949080;29;20200;-82
2023/12/02 10:57:31;;;;;;;19.55;8.70;;;-5.20;99.90;;;;;;4950421;29;20237;-83
2023/12/02 11:00:07;;;;;;;19.02;8.35;;;-5.10;99.90;;;;;;4950423;28;20625;-82
2023/12/02 11:02:46;;;;;;;17.95;7.78;;;-5.20;99.90;;;;;;4951217;29;20625;-83
2023/12/02 11:05:23;;;;;;;17.35;8.32;;;-5.20;99.90;;;;;;4953447;29;20651;-83
2023/12/02 11:07:56;;;;;;;17.27;7.40;;;-5.10;99.90;;;;;;4952603;29;20567;-82
2023/12/02 11:10:35;;;;;;;20.95;8.60;;;-5.10;99.90;;;;;;4951843;29;20213;-83
2023/12/02 11:13:12;;;;;;;22.15;9.13;;;-5.10;99.90;;;;;;4923813;29;20196;-82
2023/12/02 11:15:55;;;;;;;15.57;7.40;;;-5.10;99.90;;;;;;4951876;29;20192;-84
2023/12/02 11:18:48;;;;;;;19.02;8.50;;;-5.00;99.90;;;;;;4951257;29;20734;-83
2023/12/02 11:21:34;;;;;;;19.00;7.72;;;-5.10;99.90;;;;;;4950804;29;20264;-81
2023/12/02 11:24:07;;;;;;;19.27;8.25;;;-5.10;99.90;;;;;;4952796;29;20244;-83
2023/12/02 11:27:16;;;;;;;19.00;8.40;;;-5.00;99.90;;;;;;4951964;29;20199;-82
2023/12/02 11:30:10;;;;;;;20.13;8.13;;;-5.00;99.90;;;;;;4924139;29;20675;-82
2023/12/02 11:32:47;;;;;;;20.27;8.10;;;-5.10;99.90;;;;;;4907826;29;20218;-82
2023/12/02 11:35:21;;;;;;;16.65;7.70;;;-5.10;99.90;;;;;;4953347;29;20188;-82
2023/12/02 11:38:20;;;;;;;16.40;7.57;;;-5.10;99.90;;;;;;4930758;29;20679;-82
2023/12/02 11:41:41;;;;;;;21.85;8.57;;;-5.00;99.90;;;;;;4942264;29;20217;-81
2023/12/02 11:44:20;;;;;;;17.17;7.95;;;-5.00;99.90;;;;;;4903085;29;20195;-82
2023/12/02 11:47:12;;;;;;;16.05;7.25;;;-4.90;99.90;;;;;;4951865;29;20204;-82
2023/12/02 11:49:46;;;;;;;13.25;6.47;;;-4.80;99.90;;;;;;4951708;29;20247;-83
2023/12/02 11:52:36;;;;;;;12.85;6.85;;;-4.40;99.90;;;;;;4951691;29;20569;-83
2023/12/02 11:55:33;;;;;;;16.48;6.97;;;-4.20;99.90;;;;;;4909257;29;20306;-83
2023/12/02 11:58:29;;;;;;;15.07;6.65;;;-4.20;99.90;;;;;;4951422;28;20323;-82
2023/12/02 12:01:16;;;;;;;14.43;6.47;;;-4.20;99.90;;;;;;4924240;29;20207;-82
2023/12/02 12:04:00;;;;;;;14.95;6.13;;;-4.00;99.90;;;;;;4952136;29;20276;-82
2023/12/02 12:06:45;;;;;;;15.80;6.95;;;-3.90;99.90;;;;;;4918539;29;20764;-82
2023/12/02 12:09:45;;;;;;;13.38;6.65;;;-3.80;99.90;;;;;;4952139;29;20189;-83
2023/12/02 12:12:17;;;;;;;14.52;5.95;;;-3.60;99.90;;;;;;4952949;28;20265;-83
2023/12/02 12:14:47;;;;;;;11.65;6.07;;;-3.50;99.90;;;;;;4952574;29;20199;-83
2023/12/02 12:17:14;;;;;;;14.32;6.85;;;-3.60;99.90;;;;;;4940679;29;20232;-83
2023/12/02 12:19:42;;;;;;;15.13;7.10;;;-3.80;99.90;;;;;;4936185;29;20197;-83
2023/12/02 12:22:09;;;;;;;17.45;8.43;;;-4.00;99.90;;;;;;4952169;29;20192;-83
2023/12/02 12:24:37;;;;;;;15.30;7.00;;;-4.10;99.90;;;;;;4952122;29;20248;-83
2023/12/02 12:27:04;;;;;;;17.23;7.78;;;-4.10;99.90;;;;;;4951934;29;20189;-82
2023/12/02 12:29:32;;;;;;;17.27;7.75;;;-4.10;99.90;;;;;;4951692;28;20221;-83
2023/12/02 12:31:59;;;;;;;16.45;7.05;;;-4.20;99.90;;;;;;4967685;28;20193;-83
2023/12/02 12:34:27;;;;;;;16.52;7.03;;;-4.20;99.90;;;;;;4951598;29;20193;-82
2023/12/02 12:36:55;;;;;;;16.60;7.65;;;-4.30;99.90;;;;;;4919894;29;20193;-83
2023/12/02 12:39:22;;;;;;;20.35;8.38;;;-4.40;99.90;;;;;;4948206;29;20205;-82
2023/12/02 12:41:51;;;;;;;18.30;7.95;;;-4.40;99.90;;;;;;4933769;29;20215;-83
2023/12/02 12:44:19;;;;;;;22.63;8.82;;;-4.40;99.90;;;;;;4932484;29;20244;-83
2023/12/02 12:46:47;;;;;;;14.75;7.18;;;-4.40;99.90;;;;;;4932865;29;20197;-84
2023/12/02 12:49:21;;;;;;;14.50;7.30;;;-4.30;99.90;;;;;;4932222;29;20198;-83
2023/12/02 12:51:57;;;;;;;14.65;7.53;;;-4.40;99.90;;;;;;4948194;29;20236;-83